Time;durP1;ratioP1;P1;durP2;ratioP2;P2;SDS_P1;SDS_P2;PMS_P1;PMS_P2;Temp;Humidity;BMP_temperature;BMP_pressure;BME280_temperature;BME280_humidity;BME280_pressure;Samples;Min_cycle;Max_cycle;Signal;HPM_P1;HPM_P2
2023/08/15 00:01:41;;;;;;;7.10;1.30;;;;;;;12.36;100.00;100246.94;5011187;28;20018;-96
2023/08/15 00:04:07;;;;;;;4.10;1.17;;;;;;;12.48;100.00;100244.41;5010518;28;20030;-96
2023/08/15 00:06:33;;;;;;;6.20;1.58;;;;;;;12.34;100.00;100235.84;5008203;28;20030;-96
2023/08/15 00:09:00;;;;;;;4.78;1.45;;;;;;;12.18;100.00;100238.63;5008038;28;20539;-96
2023/08/15 00:11:28;;;;;;;5.15;1.20;;;;;;;12.11;100.00;100239.16;5010270;28;20050;-96
2023/08/15 00:13:56;;;;;;;6.43;1.23;;;;;;;12.15;100.00;100241.44;5011994;28;20053;-96
2023/08/15 00:16:22;;;;;;;8.18;1.50;;;;;;;12.30;100.00;100251.69;5009586;28;20030;-96
2023/08/15 00:18:52;;;;;;;4.95;1.08;;;;;;;12.15;100.00;100245.78;5012163;28;20030;-96
2023/08/15 00:21:18;;;;;;;11.38;1.40;;;;;;;12.21;100.00;100247.94;5011484;28;20011;-96
2023/08/15 00:23:44;;;;;;;9.85;1.80;;;;;;;12.21;100.00;100243.59;5010445;28;20042;-96
2023/08/15 00:26:09;;;;;;;5.13;1.27;;;;;;;12.19;100.00;100239.44;5008331;28;20038;-96
2023/08/15 00:28:35;;;;;;;3.75;1.40;;;;;;;12.12;100.00;100245.97;5010082;28;20026;-96
2023/08/15 00:31:01;;;;;;;8.55;1.48;;;;;;;12.12;100.00;100231.28;5009880;28;20030;-96
2023/08/15 00:33:28;;;;;;;6.45;1.50;;;;;;;12.23;100.00;100234.91;5010567;28;20029;-96
2023/08/15 00:35:54;;;;;;;8.00;1.75;;;;;;;12.30;100.00;100242.16;4992850;28;20034;-96
2023/08/15 00:38:20;;;;;;;4.75;1.35;;;;;;;12.23;100.00;100235.72;5009980;28;20026;-96
2023/08/15 00:40:46;;;;;;;6.78;2.03;;;;;;;12.19;100.00;100239.44;5009203;28;20036;-96
2023/08/15 00:43:11;;;;;;;6.53;1.55;;;;;;;12.17;100.00;100241.34;5006705;28;20072;-96
2023/08/15 00:45:40;;;;;;;5.88;1.45;;;;;;;12.25;100.00;100238.22;5009638;28;20370;-96
2023/08/15 00:48:07;;;;;;;5.90;1.45;;;;;;;12.23;100.00;100235.72;5009447;28;20031;-96
2023/08/15 00:50:36;;;;;;;5.22;1.83;;;;;;;12.28;100.00;100243.19;5009580;28;20077;-96
2023/08/15 00:53:04;;;;;;;5.18;1.60;;;;;;;12.53;100.00;100237.16;5013595;28;20034;-95
2023/08/15 00:55:31;;;;;;;9.27;1.77;;;;;;;12.41;100.00;100238.81;5010545;28;20042;-96
2023/08/15 00:57:57;;;;;;;5.00;1.70;;;;;;;12.32;100.00;100240.28;5009293;28;20029;-96
2023/08/15 01:00:23;;;;;;;9.27;1.73;;;;;;;12.62;100.00;100249.47;5010264;28;20030;-96
2023/08/15 01:02:49;;;;;;;6.65;1.63;;;;;;;12.43;100.00;100245.56;5009725;28;20046;-96
2023/08/15 01:05:18;;;;;;;4.90;1.40;;;;;;;12.41;100.00;100252.63;5011197;28;20121;-96
2023/08/15 01:07:44;;;;;;;5.03;1.45;;;;;;;12.49;100.00;100248.69;5010622;28;20018;-96
2023/08/15 01:10:11;;;;;;;7.15;1.67;;;;;;;12.41;100.00;100251.75;5010950;28;20086;-96
2023/08/15 01:12:52;;;;;;;7.45;1.90;;;;;;;12.33;100.00;100252.28;5010226;28;20026;-96
2023/08/15 01:15:31;;;;;;;5.13;1.47;;;;;;;12.33;100.00;100254.06;5007645;28;20022;-96
2023/08/15 01:18:15;;;;;;;8.98;1.67;;;;;;;12.30;100.00;100262.84;5007645;28;20027;-96
2023/08/15 01:20:41;;;;;;;7.35;1.52;;;;;;;12.24;100.00;100252.94;5003429;28;20555;-96
2023/08/15 01:23:13;;;;;;;7.25;1.67;;;;;;;12.26;100.00;100265.75;5009406;28;20026;-96
2023/08/15 01:25:44;;;;;;;13.63;2.17;;;;;;;12.28;100.00;100259.53;4981971;28;20041;-96
2023/08/15 01:28:14;;;;;;;9.05;2.00;;;;;;;12.24;100.00;100271.03;4993534;28;20066;-96
2023/08/15 01:30:56;;;;;;;5.40;1.50;;;;;;;12.20;100.00;100272.19;5011681;28;20033;-96
2023/08/15 01:33:40;;;;;;;6.72;1.85;;;;;;;12.12;100.00;100270.09;5013247;28;20019;-96
2023/08/15 01:36:12;;;;;;;6.93;1.67;;;;;;;12.10;100.00;100274.53;4997438;28;20037;-96
2023/08/15 01:38:48;;;;;;;7.57;1.75;;;;;;;12.10;100.00;100260.78;5012008;28;20040;-96
2023/08/15 01:41:19;;;;;;;8.13;1.98;;;;;;;12.20;100.00;100264.41;5012867;28;20030;-96
2023/08/15 01:43:48;;;;;;;7.82;1.90;;;;;;;12.32;100.00;100261.00;5012902;28;20033;-96
2023/08/15 01:46:20;;;;;;;7.10;1.60;;;;;;;12.40;100.00;100261.28;4996702;28;20034;-96
2023/08/15 01:49:06;;;;;;;9.13;1.58;;;;;;;12.39;100.00;100258.84;5013678;28;20050;-96
2023/08/15 01:51:32;;;;;;;6.18;1.60;;;;;;;12.32;100.00;100261.00;5012212;28;20031;-96
2023/08/15 01:54:02;;;;;;;5.43;1.88;;;;;;;12.21;100.00;100263.47;5012465;28;20014;-96
2023/08/15 01:56:30;;;;;;;6.20;2.20;;;;;;;12.20;100.00;100272.19;5010762;28;20030;-96
2023/08/15 01:58:56;;;;;;;5.25;1.33;;;;;;;12.32;100.00;100271.34;5011906;28;20030;-96
2023/08/15 02:01:25;;;;;;;5.10;1.58;;;;;;;12.22;100.00;100272.91;5011778;28;20018;-96
2023/08/15 02:03:58;;;;;;;7.68;1.52;;;;;;;12.28;100.00;100272.47;5014326;28;20070;-96
2023/08/15 02:06:26;;;;;;;6.68;1.60;;;;;;;12.34;100.00;100277.25;4999257;28;20030;-96
2023/08/15 02:08:52;;;;;;;9.63;1.58;;;;;;;12.30;100.00;100264.63;5012781;28;20094;-96
2023/08/15 02:11:19;;;;;;;4.40;1.30;;;;;;;12.29;100.00;100262.94;5012539;28;20027;-96
2023/08/15 02:13:45;;;;;;;6.78;1.88;;;;;;;12.41;100.00;100269.88;4996799;28;20050;-96
2023/08/15 02:16:11;;;;;;;5.57;1.27;;;;;;;12.29;100.00;100265.53;5013838;28;20010;-95
2023/08/15 02:18:42;;;;;;;5.80;1.33;;;;;;;12.23;100.00;100251.25;5014437;28;20057;-96
2023/08/15 02:21:10;;;;;;;9.50;1.70;;;;;;;12.29;100.00;100263.81;4982031;28;20054;-96
2023/08/15 02:23:40;;;;;;;7.80;1.65;;;;;;;12.22;100.00;100265.13;5014251;28;20030;-96
2023/08/15 02:26:08;;;;;;;5.35;1.63;;;;;;;12.18;100.00;100253.34;5015059;28;20034;-96
2023/08/15 02:28:39;;;;;;;5.55;1.48;;;;;;;12.16;100.00;100257.78;4998938;28;20524;-96
2023/08/15 02:31:05;;;;;;;4.93;1.92;;;;;;;12.23;100.00;100266.78;5018369;28;20026;-96
2023/08/15 02:33:33;;;;;;;8.15;1.55;;;;;;;12.18;100.00;100264.50;5016015;28;20050;-96
2023/08/15 02:36:07;;;;;;;8.45;2.08;;;;;;;12.15;100.00;100261.31;5013869;28;20026;-96
2023/08/15 02:38:34;;;;;;;3.83;1.20;;;;;;;12.15;100.00;100258.72;5014553;28;20022;-96
2023/08/15 02:41:02;;;;;;;3.83;1.33;;;;;;;12.09;100.00;100259.13;5017175;28;20065;-96
2023/08/15 02:43:36;;;;;;;6.78;1.65;;;;;;;12.12;100.00;100266.66;5019674;28;20039;-96
2023/08/15 02:46:02;;;;;;;2.15;1.38;;;;;;;12.04;100.00;100256.81;5001793;28;20054;-96
2023/08/15 02:48:39;;;;;;;6.90;1.70;;;;;;;12.31;100.00;100264.50;5016190;28;20034;-96
2023/08/15 02:51:07;;;;;;;5.07;1.30;;;;;;;12.53;100.00;100266.47;5014618;28;20026;-96
2023/08/15 02:53:33;;;;;;;8.45;1.75;;;;;;;12.68;100.00;100274.13;4998220;28;20057;-96
2023/08/15 02:56:00;;;;;;;6.80;2.50;;;;;;;12.51;100.00;100264.91;5015572;28;20026;-96
2023/08/15 02:58:30;;;;;;;9.38;1.73;;;;;;;12.36;100.00;100267.63;5018505;28;20064;-96
2023/08/15 03:00:56;;;;;;;10.25;2.30;;;;;;;12.47;100.00;100276.44;5014850;28;20015;-96
2023/08/15 03:03:33;;;;;;;8.38;2.42;;;;;;;12.43;100.00;100273.19;5015602;28;20035;-96
2023/08/15 03:06:03;;;;;;;4.95;1.33;;;;;;;12.50;100.00;100278.78;5014975;28;20054;-96
2023/08/15 03:08:29;;;;;;;8.30;1.50;;;;;;;12.64;100.00;100287.28;5014293;28;20014;-96
2023/08/15 03:10:58;;;;;;;6.88;1.52;;;;;;;12.73;100.00;100278.06;5017036;28;20031;-96
2023/08/15 03:13:24;;;;;;;7.93;2.00;;;;;;;12.63;100.00;100279.59;5001963;28;20014;-96
2023/08/15 03:15:57;;;;;;;8.85;1.80;;;;;;;12.68;100.00;100277.56;5014763;28;20026;-96
2023/08/15 03:18:23;;;;;;;7.10;1.92;;;;;;;12.66;100.00;100270.81;5016716;28;20034;-96
2023/08/15 03:20:59;;;;;;;6.90;1.95;;;;;;;12.56;100.00;100274.03;5015676;28;20061;-96
2023/08/15 03:23:25;;;;;;;4.93;1.50;;;;;;;12.47;100.00;100268.66;5016691;28;20054;-95
2023/08/15 03:26:01;;;;;;;9.13;2.30;;;;;;;12.55;100.00;100271.53;4999680;28;20027;-96
2023/08/15 03:28:27;;;;;;;4.70;1.63;;;;;;;12.43;100.00;100266.25;5013747;28;20038;-95
2023/08/15 03:30:52;;;;;;;6.95;1.73;;;;;;;12.34;100.00;100269.50;4998326;28;20034;-96
2023/08/15 03:33:18;;;;;;;9.40;2.00;;;;;;;12.43;100.00;100268.84;5016104;28;20037;-96
2023/08/15 03:35:49;;;;;;;8.13;1.67;;;;;;;12.48;100.00;100265.13;5015167;28;20042;-96
2023/08/15 03:38:16;;;;;;;4.43;1.30;;;;;;;12.50;100.00;100268.44;5013678;28;20022;-96
2023/08/15 03:40:47;;;;;;;5.38;1.70;;;;;;;12.63;100.00;100282.19;4999145;28;20038;-96
2023/08/15 03:43:16;;;;;;;10.18;2.00;;;;;;;12.85;100.00;100279.81;5000389;28;20046;-96
2023/08/15 03:45:42;;;;;;;5.13;1.45;;;;;;;12.73;100.00;100269.44;5014728;28;20032;-96
2023/08/15 04:01:04;;;;;;;4.63;1.80;;;;;;;12.98;100.00;100273.75;5433820;23;20061;-96
2023/08/15 04:03:29;;;;;;;8.63;1.65;;;;;;;12.88;100.00;100273.59;5015410;28;20026;-96
2023/08/15 04:05:56;;;;;;;6.10;1.90;;;;;;;12.81;100.00;100273.16;5014450;28;20026;-96
2023/08/15 04:08:22;;;;;;;4.25;1.35;;;;;;;12.80;100.00;100286.22;5014363;28;20026;-96
2023/08/15 04:10:48;;;;;;;7.40;1.73;;;;;;;12.77;100.00;100268.31;5013463;28;20033;-96
2023/08/15 04:13:15;;;;;;;6.95;1.70;;;;;;;12.75;100.00;100275.34;5016403;28;20029;-96
2023/08/15 04:15:42;;;;;;;5.88;1.80;;;;;;;12.80;100.00;100279.28;5012325;28;20050;-96
2023/08/15 04:18:10;;;;;;;4.45;1.60;;;;;;;12.78;100.00;100285.53;4996063;28;20094;-96
2023/08/15 04:20:39;;;;;;;10.18;2.55;;;;;;;12.87;100.00;100290.03;5012519;28;20066;-96
2023/08/15 04:23:06;;;;;;;7.30;1.63;;;;;;;12.75;100.00;100294.31;5015980;28;20014;-96
2023/08/15 04:25:38;;;;;;;5.97;1.70;;;;;;;12.76;100.00;100285.59;5014179;28;20045;-96
2023/08/15 04:28:05;;;;;;;6.22;1.33;;;;;;;12.69;100.00;100299.91;4998334;28;20031;-96
2023/08/15 04:30:31;;;;;;;4.80;1.40;;;;;;;12.63;100.00;100301.16;4996405;28;20026;-96
2023/08/15 04:32:58;;;;;;;5.93;1.73;;;;;;;12.60;100.00;100308.31;5013193;28;20023;-96
2023/08/15 04:35:29;;;;;;;9.70;1.50;;;;;;;12.61;100.00;100312.56;5016710;28;20029;-96
2023/08/15 04:37:57;;;;;;;3.85;1.25;;;;;;;12.62;100.00;100315.03;5016128;28;20046;-96
2023/08/15 04:40:43;;;;;;;8.02;1.55;;;;;;;12.69;100.00;100310.28;5015288;28;20537;-96
2023/08/15 04:43:11;;;;;;;6.57;1.83;;;;;;;12.65;100.00;100314.00;4998598;28;20044;-96
2023/08/15 04:45:40;;;;;;;6.18;1.65;;;;;;;12.57;100.00;100311.09;5013832;28;20023;-96
2023/08/15 04:48:11;;;;;;;7.28;1.77;;;;;;;12.51;100.00;100311.50;5014925;28;20046;-96
2023/08/15 04:50:43;;;;;;;3.85;1.52;;;;;;;12.52;100.00;100319.19;4984141;28;20082;-96
2023/08/15 04:53:13;;;;;;;6.88;1.58;;;;;;;12.42;100.00;100313.78;5015780;28;20090;-96
2023/08/15 04:55:42;;;;;;;5.72;1.90;;;;;;;12.43;100.00;100325.78;5017223;28;20014;-96
2023/08/15 04:58:09;;;;;;;6.88;2.17;;;;;;;12.37;100.00;100321.03;4999147;28;20102;-96
2023/08/15 05:00:45;;;;;;;5.20;1.42;;;;;;;12.41;100.00;100322.50;4999571;28;20064;-96
2023/08/15 05:03:13;;;;;;;4.25;1.25;;;;;;;12.36;100.00;100323.72;4998560;28;20065;-96
2023/08/15 05:05:42;;;;;;;3.50;1.40;;;;;;;12.32;100.00;100327.47;5015544;28;20018;-96
2023/08/15 05:08:12;;;;;;;5.25;1.52;;;;;;;12.30;100.00;100322.38;4998895;28;20037;-96
2023/08/15 05:10:47;;;;;;;4.10;1.33;;;;;;;12.29;100.00;100333.69;4999872;28;20014;-96
2023/08/15 05:13:27;;;;;;;3.22;1.25;;;;;;;12.33;100.00;100335.09;5016794;28;20038;-96
2023/08/15 05:15:57;;;;;;;5.75;1.38;;;;;;;12.35;100.00;100337.59;5013650;28;20031;-96
2023/08/15 05:18:36;;;;;;;6.97;2.10;;;;;;;12.33;100.00;100335.09;5012836;28;20042;-96
2023/08/15 05:21:03;;;;;;;6.00;1.38;;;;;;;12.42;100.00;100344.03;5015920;28;20034;-96
2023/08/15 05:23:36;;;;;;;3.75;1.63;;;;;;;12.40;100.00;100351.88;5016823;28;20083;-96
2023/08/15 05:26:05;;;;;;;3.00;1.15;;;;;;;12.42;100.00;100355.22;5001156;28;20552;-96
2023/08/15 05:28:33;;;;;;;9.60;1.30;;;;;;;12.37;100.00;100359.88;4999005;28;20057;-95
2023/08/15 05:31:00;;;;;;;5.75;1.50;;;;;;;12.50;100.00;100372.81;5014774;28;20025;-96
2023/08/15 05:33:29;;;;;;;5.75;1.55;;;;;;;12.55;100.00;100372.50;5017976;28;20016;-96
2023/08/15 05:36:02;;;;;;;5.50;1.20;;;;;;;12.55;100.00;100367.34;5016259;28;20026;-96
2023/08/15 05:38:29;;;;;;;6.82;1.30;;;;;;;12.61;100.00;100375.53;5015363;28;20030;-96
2023/08/15 05:41:01;;;;;;;4.10;1.20;;;;;;;12.58;100.00;100374.88;5015171;28;20014;-96
2023/08/15 05:43:49;;;;;;;3.28;1.55;;;;;;;12.80;100.00;100382.91;5016788;28;20018;-96
2023/08/15 08:32:20;;;;;;;6.45;1.40;;;;;;;18.00;100.00;100579.84;6137823;23;21027;31
2023/08/15 08:34:45;;;;;;;3.63;1.20;;;;;;;18.28;100.00;100589.50;4988965;28;20339;-96
2023/08/15 08:37:11;;;;;;;3.20;0.90;;;;;;;18.50;100.00;100592.84;4975348;29;20028;-96
2023/08/15 08:39:37;;;;;;;7.82;1.33;;;;;;;18.48;100.00;100589.53;4971855;29;20438;-96
2023/08/15 08:42:03;;;;;;;3.03;0.90;;;;;;;18.92;99.88;100592.63;5073039;23;20114;-96
2023/08/15 08:44:31;;;;;;;3.22;1.00;;;;;;;19.41;97.30;100596.00;4997222;28;20038;-96
2023/08/15 08:47:01;;;;;;;5.47;1.00;;;;;;;19.13;95.69;100597.72;4993645;28;20014;-96
2023/08/15 08:49:29;;;;;;;5.72;1.00;;;;;;;19.06;94.33;100600.06;4995255;28;20041;-96
2023/08/15 08:51:56;;;;;;;6.15;1.27;;;;;;;18.97;96.63;100599.13;4994527;28;20050;-96
2023/08/15 08:54:22;;;;;;;7.70;1.20;;;;;;;18.94;96.74;100606.41;4992775;28;20069;-96
2023/08/15 08:56:49;;;;;;;2.97;1.00;;;;;;;18.95;98.49;100601.03;4992462;28;20030;-96
2023/08/15 08:59:21;;;;;;;9.13;1.45;;;;;;;18.88;98.44;100601.72;4977457;28;20059;-96
2023/08/15 09:01:49;;;;;;;5.03;1.60;;;;;;;18.75;99.87;100600.19;4996175;28;20035;-96
2023/08/15 09:04:20;;;;;;;4.35;1.00;;;;;;;18.72;100.00;100607.47;4995698;28;20046;-96
2023/08/15 09:06:52;;;;;;;3.05;0.80;;;;;;;18.67;100.00;100610.47;4996558;28;20075;-96
2023/08/15 09:09:20;;;;;;;6.65;1.85;;;;;;;19.06;98.01;100607.91;4994550;28;20025;-96
2023/08/15 09:11:53;;;;;;;7.18;1.38;;;;;;;19.44;93.74;100611.44;4996239;28;20023;-96
2023/08/15 09:14:22;;;;;;;5.30;2.00;;;;;;;19.41;95.01;100614.31;4978727;28;20083;-96
2023/08/15 09:16:59;;;;;;;6.45;1.10;;;;;;;19.30;95.73;100614.50;4996573;28;20011;-96
2023/08/15 09:19:25;;;;;;;5.00;1.40;;;;;;;19.09;96.48;100609.41;4995378;28;20384;-96
2023/08/15 09:22:04;;;;;;;2.65;0.88;;;;;;;19.19;98.02;100615.44;4979431;28;20035;-96
2023/08/15 09:24:31;;;;;;;7.18;1.63;;;;;;;19.43;98.63;100607.16;4994743;28;20046;-96
2023/08/15 09:27:13;;;;;;;5.45;1.38;;;;;;;19.73;95.16;100602.69;4996170;28;20026;-96
2023/08/15 09:29:45;;;;;;;6.28;1.20;;;;;;;20.48;87.66;100606.03;4993705;28;20058;-96
2023/08/15 09:32:44;;;;;;;3.13;1.03;;;;;;;21.20;83.19;100598.16;4997269;28;20053;-96
2023/08/15 09:35:14;;;;;;;6.25;1.40;;;;;;;21.71;80.41;100602.59;4995514;28;20078;-96
2023/08/15 09:38:05;;;;;;;4.90;1.15;;;;;;;21.95;77.86;100601.09;4994630;28;20023;-96
2023/08/15 09:40:37;;;;;;;7.03;1.38;;;;;;;22.38;71.45;100601.88;4995373;28;20030;-96
2023/08/15 09:43:13;;;;;;;8.43;1.95;;;;;;;22.69;71.76;100599.47;4996262;28;20066;-96
2023/08/15 09:45:42;;;;;;;8.18;2.25;;;;;;;22.74;71.61;100599.81;4994129;28;20038;-96
2023/08/15 09:48:09;;;;;;;8.77;1.33;;;;;;;22.18;71.38;100601.31;4948194;28;20042;-96
2023/08/15 09:50:36;;;;;;;5.75;1.30;;;;;;;21.52;72.92;100606.28;4993029;28;20022;-96
2023/08/15 09:53:03;;;;;;;5.90;1.35;;;;;;;20.85;78.68;100599.84;4990188;28;20066;-96
2023/08/15 09:55:33;;;;;;;3.28;0.88;;;;;;;21.11;77.82;100595.47;4994006;28;20029;-96
2023/08/15 09:58:03;;;;;;;2.67;1.35;;;;;;;21.06;79.82;100597.72;4996002;28;20019;-96
2023/08/15 10:00:31;;;;;;;4.45;1.10;;;;;;;20.81;81.38;100599.34;4996343;28;20015;-96
2023/08/15 10:03:07;;;;;;;6.40;1.00;;;;;;;20.85;81.35;100599.84;4996305;28;19999;-96
2023/08/15 10:05:34;;;;;;;7.40;1.63;;;;;;;20.84;79.27;100601.66;4991227;28;20096;-96
2023/08/15 10:08:06;;;;;;;4.53;1.10;;;;;;;21.21;77.61;100589.31;4992422;28;20059;-96
2023/08/15 10:10:43;;;;;;;9.68;1.70;;;;;;;22.18;74.73;100581.09;4998307;28;20022;-96
2023/08/15 10:59:42;;;;;;;3.15;1.10;;;;;;;21.59;67.74;100606.47;5429791;23;20068;-95
2023/08/15 11:02:15;;;;;;;5.00;1.25;;;;;;;21.54;70.75;100601.69;5017947;28;20373;-96
2023/08/15 11:15:08;;;;;;;5.38;1.10;;;;;;;22.14;70.03;100597.34;5642691;23;20046;-96
2023/08/15 11:17:34;;;;;;;5.32;1.23;;;;;;;22.41;69.93;100593.66;5016908;28;20035;-96
2023/08/15 11:19:59;;;;;;;4.25;1.10;;;;;;;22.59;68.81;100606.72;5017318;28;20017;-96
2023/08/15 11:22:25;;;;;;;4.45;1.35;;;;;;;22.53;67.84;100600.28;5016477;28;20010;-96
2023/08/15 11:24:51;;;;;;;8.95;1.75;;;;;;;22.30;68.24;100599.25;5016462;28;20018;-96
2023/08/15 11:27:20;;;;;;;3.38;0.82;;;;;;;22.13;67.15;100596.53;5013980;28;20022;-96
2023/08/15 11:29:56;;;;;;;3.40;0.82;;;;;;;22.36;66.59;100594.19;5017019;28;20041;-96
2023/08/15 11:32:32;;;;;;;4.85;0.85;;;;;;;21.94;67.76;100597.59;5015265;28;20022;-96
2023/08/15 11:35:22;;;;;;;2.25;0.73;;;;;;;22.25;67.37;100610.25;5017985;28;20026;-96
2023/08/15 11:37:51;;;;;;;3.25;0.80;;;;;;;22.14;69.13;100608.72;5000966;28;20041;-96
2023/08/15 11:40:20;;;;;;;5.43;0.95;;;;;;;22.13;68.75;100596.53;5017870;28;20045;-96
2023/08/15 11:42:48;;;;;;;7.32;1.00;;;;;;;22.10;69.91;100607.38;5012728;28;20089;-96
2023/08/15 11:45:35;;;;;;;5.47;1.00;;;;;;;22.35;69.22;100604.84;5001907;28;20039;-96
2023/08/15 11:48:03;;;;;;;9.63;1.75;;;;;;;22.40;69.29;100602.56;5017347;28;20097;-96
2023/08/15 11:50:34;;;;;;;2.90;0.80;;;;;;;22.10;68.83;100604.75;4979235;28;20055;-96
2023/08/15 12:24:21;;;;;;;2.40;0.68;;;;;;;26.43;51.83;100603.50;4985702;28;20047;-96
2023/08/15 12:26:47;;;;;;;2.75;0.80;;;;;;;27.00;48.08;100603.63;4977250;28;20050;-96
2023/08/15 12:29:14;;;;;;;1.92;0.55;;;;;;;26.77;46.87;100595.91;4977071;28;20533;-96
2023/08/15 12:31:43;;;;;;;2.97;0.80;;;;;;;26.20;47.04;100616.06;5004017;28;20066;-96
2023/08/15 12:34:21;;;;;;;5.10;0.57;;;;;;;26.81;46.59;100603.28;4975861;28;20051;-96
2023/08/15 12:36:49;;;;;;;4.18;0.50;;;;;;;27.07;46.01;100615.13;4972229;28;20047;-96
2023/08/15 12:39:16;;;;;;;1.30;0.60;;;;;;;27.26;46.97;100606.53;4975285;29;20019;-96
2023/08/15 12:41:48;;;;;;;3.30;0.60;;;;;;;27.18;45.55;100603.97;4972793;28;20047;-96
2023/08/15 12:44:15;;;;;;;2.10;0.60;;;;;;;27.54;44.85;100600.34;4974124;28;20095;-96
2023/08/15 12:46:59;;;;;;;2.38;0.50;;;;;;;27.65;44.84;100609.59;5007702;28;20043;-96
2023/08/15 12:49:32;;;;;;;1.95;0.50;;;;;;;27.88;45.50;100596.06;4978809;28;20062;-96
2023/08/15 12:51:58;;;;;;;1.33;0.47;;;;;;;27.25;45.30;100594.25;4969675;29;20039;-96
2023/08/15 12:54:25;;;;;;;3.03;0.75;;;;;;;26.37;47.75;100591.03;4959365;29;20332;-96
2023/08/15 12:56:54;;;;;;;5.28;0.70;;;;;;;25.84;48.87;100606.25;4975959;29;20016;-96
2023/08/15 12:59:23;;;;;;;2.80;0.60;;;;;;;25.58;48.84;100607.56;4959577;28;20047;-96
2023/08/15 13:01:49;;;;;;;2.30;0.75;;;;;;;25.07;51.23;100610.00;4974236;28;20062;-96
2023/08/15 13:04:15;;;;;;;2.00;0.68;;;;;;;24.60;53.03;100613.66;4973264;28;20027;-96
2023/08/15 13:06:41;;;;;;;1.98;0.60;;;;;;;24.01;55.91;100618.56;4970827;29;20089;-96
2023/08/15 13:09:11;;;;;;;1.40;0.47;;;;;;;24.69;54.37;100614.44;4973683;29;20482;-96
2023/08/15 13:11:38;;;;;;;6.53;0.68;;;;;;;25.53;52.16;100615.19;4972439;29;20053;-96
2023/08/15 13:14:06;;;;;;;2.58;0.50;;;;;;;25.99;49.61;100608.91;4974705;28;20054;-96
2023/08/15 13:16:32;;;;;;;5.97;0.55;;;;;;;25.88;49.94;100604.91;4956587;28;20028;-96
2023/08/15 13:19:00;;;;;;;4.55;0.60;;;;;;;26.05;51.43;100608.97;4971064;29;20027;-96
2023/08/15 13:21:29;;;;;;;2.45;0.50;;;;;;;26.00;48.69;100608.72;4971057;29;20123;-96
2023/08/15 13:23:55;;;;;;;1.88;0.68;;;;;;;25.77;49.39;100607.97;4973473;28;20082;-96
2023/08/15 13:26:21;;;;;;;4.28;0.60;;;;;;;25.45;50.34;100617.09;4969902;29;20023;-96
2023/08/15 13:28:48;;;;;;;3.15;0.70;;;;;;;25.41;50.09;100611.38;4971990;29;20027;-96
2023/08/15 13:31:14;;;;;;;2.08;0.30;;;;;;;25.25;50.86;100614.16;4972473;29;20035;-96
2023/08/15 13:33:41;;;;;;;3.47;0.60;;;;;;;25.19;50.16;100621.81;4969008;28;20044;-96
2023/08/15 13:36:07;;;;;;;1.88;0.40;;;;;;;24.90;51.32;100624.34;5000181;28;20007;-96
2023/08/15 13:38:33;;;;;;;4.03;0.82;;;;;;;25.39;50.84;100623.94;4998240;28;20035;-96
2023/08/15 13:40:59;;;;;;;1.85;0.50;;;;;;;25.61;48.80;100628.31;5001097;28;20091;-96
2023/08/15 13:43:25;;;;;;;3.33;0.40;;;;;;;25.11;49.20;100623.66;4961538;29;20065;-96
2023/08/15 13:45:51;;;;;;;2.63;0.45;;;;;;;25.01;49.29;100613.34;4998207;28;20024;-96
2023/08/15 13:48:18;;;;;;;2.25;0.68;;;;;;;24.81;50.78;100625.41;4970284;29;20038;-96
2023/08/15 13:50:46;;;;;;;1.92;0.50;;;;;;;24.89;49.77;100620.88;4972462;28;20023;-96
2023/08/15 13:53:12;;;;;;;1.88;0.50;;;;;;;24.97;51.81;100623.47;4971541;29;20023;-96
2023/08/15 13:55:38;;;;;;;2.05;0.75;;;;;;;25.05;51.33;100627.84;4972054;28;20050;-96
2023/08/15 13:58:07;;;;;;;2.38;0.40;;;;;;;25.16;51.51;100624.75;4973768;29;20015;-96
2023/08/15 14:00:33;;;;;;;3.80;0.85;;;;;;;24.96;50.76;100623.63;4957737;29;20090;-96
2023/08/15 14:02:59;;;;;;;1.88;0.55;;;;;;;24.88;51.07;100626.34;4971498;29;20055;-96
2023/08/15 14:05:25;;;;;;;2.78;0.60;;;;;;;24.57;51.85;100624.56;4971941;28;20038;-96
2023/08/15 14:07:53;;;;;;;4.57;1.05;;;;;;;24.41;51.53;100619.34;4967738;29;20032;-96
2023/08/15 14:10:19;;;;;;;2.25;0.50;;;;;;;24.70;52.16;100624.81;4966408;29;20023;-96
2023/08/15 14:12:45;;;;;;;2.75;0.52;;;;;;;24.85;52.07;100624.03;4966416;29;20024;-96
2023/08/15 14:15:10;;;;;;;1.73;0.32;;;;;;;24.77;49.75;100638.97;4964647;28;20466;-96
2023/08/15 14:17:36;;;;;;;2.55;0.45;;;;;;;24.82;50.58;100634.97;4963241;29;20034;-96
2023/08/15 14:20:03;;;;;;;1.08;0.40;;;;;;;24.99;49.60;100631.19;4966298;29;20179;-96
2023/08/15 14:22:29;;;;;;;2.45;0.77;;;;;;;24.80;48.89;100639.59;4962175;29;20042;-96
2023/08/15 14:24:54;;;;;;;4.15;0.60;;;;;;;24.53;49.17;100631.19;4962130;28;20031;-96
2023/08/15 14:27:20;;;;;;;3.28;0.50;;;;;;;24.60;49.75;100637.41;4964515;29;20086;-96
2023/08/15 14:29:45;;;;;;;1.55;0.47;;;;;;;24.53;51.29;100633.81;4965244;29;20027;-96
2023/08/15 14:32:12;;;;;;;1.95;0.85;;;;;;;24.28;50.56;100639.22;4998025;28;20561;-96
2023/08/15 14:34:37;;;;;;;2.35;0.60;;;;;;;24.42;50.64;100631.56;4965285;28;20023;-96
2023/08/15 14:37:03;;;;;;;3.28;0.52;;;;;;;24.46;52.00;100638.16;4966216;29;20035;-96
2023/08/15 14:39:28;;;;;;;6.45;1.58;;;;;;;23.87;50.23;100646.47;4994480;28;20034;-96
2023/08/15 14:41:54;;;;;;;1.27;0.45;;;;;;;24.08;52.47;100645.91;4998981;28;20529;-96
2023/08/15 14:44:20;;;;;;;3.75;0.50;;;;;;;24.04;52.26;100647.22;4965654;28;20089;-96
2023/08/15 14:46:45;;;;;;;1.63;0.50;;;;;;;23.90;52.34;100649.59;4963926;29;20066;-96
2023/08/15 14:49:11;;;;;;;2.33;0.60;;;;;;;23.69;52.77;100644.84;4961905;29;20038;-96
2023/08/15 14:51:36;;;;;;;3.20;0.60;;;;;;;23.70;53.54;100645.66;4963706;28;20031;-96
2023/08/15 14:54:02;;;;;;;2.17;0.88;;;;;;;23.50;55.52;100653.13;4963651;28;20034;-96
2023/08/15 14:56:27;;;;;;;3.67;0.55;;;;;;;23.52;55.75;100655.59;4965412;29;20027;-96
2023/08/15 14:58:53;;;;;;;1.92;0.50;;;;;;;23.61;54.68;100652.78;5001672;28;20046;-96
2023/08/15 15:01:18;;;;;;;3.50;0.50;;;;;;;23.35;52.90;100645.06;4967676;29;20027;-96
2023/08/15 15:03:44;;;;;;;2.20;0.43;;;;;;;23.43;54.69;100652.97;4969335;28;20059;-96
2023/08/15 15:06:10;;;;;;;3.72;0.68;;;;;;;23.42;54.49;100659.22;4969703;29;20031;-96
2023/08/15 15:08:35;;;;;;;4.10;0.40;;;;;;;23.32;55.91;100655.94;4970849;29;20031;-96
2023/08/15 15:11:03;;;;;;;3.80;0.47;;;;;;;23.30;55.25;100642.13;4968710;29;20042;-96
2023/08/15 15:13:28;;;;;;;2.50;0.60;;;;;;;23.28;55.30;100654.63;4971957;29;20031;-96
2023/08/15 15:15:54;;;;;;;3.35;0.60;;;;;;;23.11;57.09;100653.00;4969509;28;20030;-96
2023/08/15 15:18:21;;;;;;;3.47;0.80;;;;;;;23.13;56.06;100656.28;4967541;29;20047;-96
2023/08/15 15:20:46;;;;;;;4.28;0.50;;;;;;;23.12;56.16;100660.75;4968913;29;20023;-96
2023/08/15 15:23:12;;;;;;;2.65;0.70;;;;;;;23.05;56.64;100660.56;4968027;29;20054;-96
2023/08/15 15:25:37;;;;;;;3.53;0.73;;;;;;;22.98;57.99;100662.19;4966028;28;20059;-96
2023/08/15 15:28:03;;;;;;;3.67;1.27;;;;;;;22.88;56.59;100658.88;4965190;29;20031;-96
2023/08/15 15:30:28;;;;;;;2.30;0.57;;;;;;;22.83;56.37;100655.91;4963269;29;20031;-96
2023/08/15 15:32:54;;;;;;;1.75;0.50;;;;;;;22.68;58.36;100662.78;4962967;29;20055;-96
2023/08/15 15:35:20;;;;;;;9.77;0.85;;;;;;;22.69;57.84;100665.25;4993153;28;20043;-96
2023/08/15 15:37:46;;;;;;;2.10;0.50;;;;;;;22.65;58.28;100658.66;4962644;29;20027;-96
2023/08/15 15:40:12;;;;;;;4.25;0.43;;;;;;;22.65;59.11;100659.50;4965313;29;20033;-96
2023/08/15 15:42:38;;;;;;;1.35;0.60;;;;;;;22.64;59.49;100660.47;4963316;29;20050;-96
2023/08/15 15:45:04;;;;;;;2.17;0.40;;;;;;;22.57;57.71;100656.84;4962326;28;20465;-96
2023/08/15 15:47:30;;;;;;;4.47;0.88;;;;;;;22.62;59.32;100659.00;4963298;29;20023;-96
2023/08/15 15:49:55;;;;;;;4.35;0.70;;;;;;;22.44;60.22;100669.66;4960706;29;20070;-96
2023/08/15 15:52:20;;;;;;;6.57;0.98;;;;;;;22.20;59.75;100663.31;4962265;29;20021;-96
2023/08/15 15:54:46;;;;;;;4.32;0.65;;;;;;;22.28;59.75;100665.13;4962456;28;20039;-96
2023/08/15 15:57:12;;;;;;;4.75;1.02;;;;;;;22.34;58.29;100666.31;4961078;29;20023;-96